createdAt,value
2022-12-13T00:02:15.613Z,-3.03
2022-12-13T00:07:07.165Z,-3.45
2022-12-13T00:11:58.789Z,-3.10
2022-12-13T00:16:50.549Z,-3.25
2022-12-13T00:21:42.250Z,-3.49
2022-12-13T00:26:34.279Z,-3.13
2022-12-13T00:36:37.913Z,-3.86
2022-12-13T00:41:32.233Z,-3.89
2022-12-13T00:46:23.992Z,-3.81
2022-12-13T00:51:15.605Z,-3.28
2022-12-13T00:56:12.672Z,-3.31
2022-12-13T01:01:13.366Z,-3.24
2022-12-13T01:06:29.428Z,-4.09
2022-12-13T01:11:21.054Z,-3.31
2022-12-13T01:16:13.620Z,-3.38
2022-12-13T01:21:08.375Z,-3.32
2022-12-13T01:26:05.538Z,-4.59
2022-12-13T01:30:58.994Z,-3.39
2022-12-13T01:35:50.731Z,-3.87
2022-12-13T01:40:46.963Z,-3.43
2022-12-13T01:45:38.569Z,-3.47
2022-12-13T01:50:39.173Z,-4.14
2022-12-13T01:55:41.420Z,-3.67
2022-12-13T02:00:35.448Z,-4.30
2022-12-13T02:05:28.972Z,-3.55
2022-12-13T02:10:21.090Z,-3.56
2022-12-13T02:15:16.163Z,-3.94
2022-12-13T02:20:32.915Z,-3.60
2022-12-13T02:25:46.081Z,-3.66
2022-12-13T02:30:52.872Z,-4.46
2022-12-13T02:36:08.788Z,-3.71
2022-12-13T02:41:14.397Z,-4.28
2022-12-13T02:46:07.697Z,-3.88
2022-12-13T02:51:02.292Z,-5.59
2022-12-13T02:55:53.829Z,-4.37
2022-12-13T03:00:55.565Z,-4.55
2022-12-13T03:06:34.042Z,-3.98
2022-12-13T03:11:50.536Z,-5.07
2022-12-13T03:16:46.075Z,-4.33
2022-12-13T03:21:47.716Z,-4.14
2022-12-13T03:26:40.515Z,-4.68
2022-12-13T03:31:32.473Z,-4.17
2022-12-13T03:36:24.952Z,-4.62
2022-12-13T03:41:20.663Z,-4.41
2022-12-13T03:46:12.369Z,-4.33
2022-12-13T03:51:04.759Z,-5.28
2022-12-13T03:55:56.580Z,-4.43
2022-12-13T04:00:48.614Z,-4.49
2022-12-13T04:05:40.174Z,-4.74
2022-12-13T04:10:31.835Z,-4.59
2022-12-13T04:15:23.476Z,-4.61
2022-12-13T04:20:15.276Z,-5.62
2022-12-13T04:25:07.135Z,-4.78
2022-12-13T04:29:58.800Z,-5.42
2022-12-13T04:34:50.383Z,-5.03
2022-12-13T04:39:47.838Z,-5.07
2022-12-13T04:44:42.260Z,-5.13
2022-12-13T04:49:37.516Z,-5.15
2022-12-13T04:54:36.391Z,-5.24
2022-12-13T04:59:28.495Z,-5.41
2022-12-13T05:04:20.018Z,-5.70
2022-12-13T05:09:11.775Z,-5.79
2022-12-13T05:14:03.525Z,-7.04
2022-12-13T05:18:55.030Z,-5.33
2022-12-13T05:23:46.597Z,-5.38
2022-12-13T05:28:38.313Z,-5.35
2022-12-13T05:33:31.177Z,-5.39
2022-12-13T05:38:22.748Z,-5.22
2022-12-13T05:43:21.087Z,-5.18
2022-12-13T05:48:13.308Z,-5.78
2022-12-13T05:53:05.673Z,-5.20
2022-12-13T05:58:02.436Z,-5.75
2022-12-13T06:02:54.378Z,-5.22
2022-12-13T06:07:46.536Z,-5.42
2022-12-13T06:12:43.260Z,-5.75
2022-12-13T06:17:36.729Z,-5.20
2022-12-13T06:22:28.838Z,-5.14
2022-12-13T06:27:20.473Z,-5.17
2022-12-13T06:32:12.116Z,-5.51
2022-12-13T06:37:07.019Z,-5.41
2022-12-13T06:41:58.718Z,-5.15
2022-12-13T06:46:50.281Z,-5.15
2022-12-13T06:51:41.809Z,-5.12
2022-12-13T06:56:33.384Z,-5.26
2022-12-13T07:01:25.170Z,-5.61
2022-12-13T07:06:20.258Z,-5.41
2022-12-13T07:11:16.560Z,-5.57
2022-12-13T07:16:08.516Z,-5.07
2022-12-13T07:21:00.122Z,-5.31
2022-12-13T07:25:55.279Z,-5.40
2022-12-13T07:30:47.331Z,-5.01
2022-12-13T07:35:39.702Z,-5.01
2022-12-13T07:40:33.688Z,-5.08
2022-12-13T07:45:25.474Z,-6.12
2022-12-13T07:50:24.881Z,-6.02
2022-12-13T07:55:17.917Z,-5.64
2022-12-13T08:00:14.979Z,-4.93
2022-12-13T08:05:26.733Z,-5.52
2022-12-13T08:10:18.695Z,-4.66
2022-12-13T08:15:13.936Z,-3.84
2022-12-13T08:20:06.244Z,-3.51
2022-12-13T08:24:57.853Z,-3.39
2022-12-13T08:29:49.598Z,-3.14
2022-12-13T08:34:42.419Z,-4.54
2022-12-13T08:39:36.918Z,-2.45
2022-12-13T08:44:29.736Z,-3.20
2022-12-13T08:49:21.538Z,-2.74
2022-12-13T08:54:13.158Z,-2.59
2022-12-13T08:59:25.325Z,-2.63
2022-12-13T09:04:16.878Z,-2.73
2022-12-13T09:09:23.488Z,-3.34
2022-12-13T09:14:15.059Z,-2.74
2022-12-13T09:19:26.386Z,-3.00
2022-12-13T09:24:24.690Z,-3.13
2022-12-13T09:29:16.472Z,-2.34
2022-12-13T09:34:09.225Z,-3.19
2022-12-13T09:39:00.829Z,-2.28
2022-12-13T09:44:30.815Z,-2.57
2022-12-13T09:49:35.743Z,-2.72
2022-12-13T09:54:27.689Z,-2.60
2022-12-13T09:59:31.424Z,-2.28
2022-12-13T10:04:23.494Z,-2.53
2022-12-13T10:09:15.149Z,-2.12
2022-12-13T10:14:15.585Z,-2.41
2022-12-13T10:19:38.026Z,-2.22
2022-12-13T10:24:48.198Z,-2.07
2022-12-13T10:30:05.710Z,-2.16
2022-12-13T10:34:57.340Z,-2.59
2022-12-13T10:39:49.186Z,-2.06
2022-12-13T10:44:40.915Z,-2.62
2022-12-13T10:49:39.372Z,-1.90
2022-12-13T10:54:38.918Z,-1.99
2022-12-13T10:59:40.375Z,-1.41
2022-12-13T11:04:35.060Z,-1.23
2022-12-13T11:09:28.511Z,-1.12
2022-12-13T11:14:32.254Z,-0.98
2022-12-13T11:19:29.758Z,-1.05
2022-12-13T11:24:25.813Z,-0.93
2022-12-13T11:29:39.429Z,-1.21
2022-12-13T11:34:58.927Z,-2.40
2022-12-13T11:40:01.144Z,-1.88
2022-12-13T11:45:10.941Z,-0.78
2022-12-13T11:50:21.840Z,-0.76
2022-12-13T11:55:37.370Z,-0.85
2022-12-13T12:00:42.266Z,-1.08
2022-12-13T12:05:38.199Z,-1.01
2022-12-13T12:10:36.379Z,-0.67
2022-12-13T12:15:41.557Z,-0.55
2022-12-13T12:21:04.915Z,-0.70
2022-12-13T12:26:11.697Z,-1.05
2022-12-13T12:31:10.620Z,-0.75
2022-12-13T12:36:24.402Z,-0.84
2022-12-13T12:41:44.946Z,-0.96
2022-12-13T12:52:48.715Z,-0.86
2022-12-13T12:58:04.905Z,-0.72
2022-12-13T13:03:17.180Z,-0.58
2022-12-13T13:08:39.775Z,-0.72
2022-12-13T13:13:47.398Z,-0.90
2022-12-13T13:18:48.192Z,-0.42
2022-12-13T13:23:41.028Z,-0.61
2022-12-13T13:28:32.980Z,-0.50
2022-12-13T13:33:44.507Z,-0.55
2022-12-13T13:38:51.385Z,-0.41
2022-12-13T13:43:42.904Z,-0.34
2022-12-13T13:48:40.514Z,-0.37
2022-12-13T13:53:49.068Z,-1.21
2022-12-13T13:59:04.863Z,-0.36
2022-12-13T14:04:12.609Z,-0.41
2022-12-13T14:09:21.723Z,-0.66
2022-12-13T14:14:38.728Z,-0.43
2022-12-13T14:19:56.614Z,-0.43
2022-12-13T14:24:59.090Z,-1.20
2022-12-13T14:29:58.131Z,-0.52
2022-12-13T14:34:50.481Z,-0.70
2022-12-13T14:39:45.081Z,-0.75
2022-12-13T14:44:36.675Z,-0.63
2022-12-13T14:49:31.097Z,-1.07
2022-12-13T14:54:26.043Z,-0.81
2022-12-13T14:59:17.978Z,-0.84
2022-12-13T15:04:22.077Z,-0.90
2022-12-13T15:09:14.711Z,-1.54
2022-12-13T15:14:12.729Z,-1.03
2022-12-13T15:19:31.028Z,-1.07
2022-12-13T15:24:30.942Z,-1.18
2022-12-13T15:29:33.525Z,-1.21
2022-12-13T15:34:30.546Z,-1.27
2022-12-13T15:39:24.797Z,-1.35
2022-12-13T15:44:23.537Z,-1.75
2022-12-13T15:49:38.206Z,-1.40
2022-12-13T15:54:30.666Z,-1.91
2022-12-13T15:59:34.473Z,-1.49
2022-12-13T16:04:29.474Z,-1.57
2022-12-13T16:09:24.653Z,-1.59
2022-12-13T16:14:31.634Z,-1.56
2022-12-13T16:19:23.460Z,-1.64
2022-12-13T16:24:15.348Z,-2.48
2022-12-13T16:29:11.927Z,-1.69
2022-12-13T16:34:05.053Z,-1.66
2022-12-13T16:38:56.702Z,-2.26
2022-12-13T16:44:00.354Z,-1.61
2022-12-13T16:48:53.348Z,-1.78
2022-12-13T16:53:45.786Z,-2.21
2022-12-13T16:58:37.835Z,-2.08
2022-12-13T17:03:29.718Z,-1.74
2022-12-13T17:08:21.230Z,-1.76
2022-12-13T17:13:12.995Z,-1.75
2022-12-13T17:18:05.063Z,-1.77
2022-12-13T17:22:56.764Z,-1.97
2022-12-13T17:27:48.504Z,-1.97
2022-12-13T17:32:40.116Z,-1.77
2022-12-13T17:37:32.161Z,-1.80
2022-12-13T17:42:23.911Z,-1.80
2022-12-13T17:47:18.253Z,-1.84
2022-12-13T17:52:12.560Z,-2.58
2022-12-13T17:57:04.199Z,-1.82
2022-12-13T18:01:56.181Z,-2.16
2022-12-13T18:06:47.822Z,-1.79
2022-12-13T18:11:40.447Z,-2.62
2022-12-13T18:16:37.860Z,-2.45
2022-12-13T18:21:29.750Z,-2.21
2022-12-13T18:26:21.604Z,-1.87
2022-12-13T18:31:23.365Z,-1.90
2022-12-13T18:36:16.462Z,-2.79
2022-12-13T18:41:14.808Z,-1.93
2022-12-13T18:46:06.801Z,-1.97
2022-12-13T18:51:00.552Z,-2.06
2022-12-13T18:55:52.163Z,-2.85
2022-12-13T19:00:44.714Z,-2.57
2022-12-13T19:05:36.400Z,-2.46
2022-12-13T19:10:28.193Z,-2.26
2022-12-13T19:15:19.989Z,-2.22
2022-12-13T19:20:11.821Z,-2.25
2022-12-13T19:25:04.284Z,-3.08
2022-12-13T19:29:57.179Z,-2.59
2022-12-13T19:34:49.045Z,-2.23
2022-12-13T19:39:40.803Z,-3.17
2022-12-13T19:44:32.744Z,-2.22
2022-12-13T19:49:24.450Z,-2.55
2022-12-13T19:54:16.730Z,-3.05
2022-12-13T19:59:08.332Z,-3.35
2022-12-13T20:03:59.973Z,-2.40
2022-12-13T20:08:52.019Z,-2.85
2022-12-13T20:13:44.088Z,-2.46
2022-12-13T20:18:35.698Z,-2.83
2022-12-13T20:23:30.247Z,-2.80
2022-12-13T20:28:22.101Z,-2.45
2022-12-13T20:33:13.865Z,-2.40
2022-12-13T20:38:08.292Z,-3.26
2022-12-13T20:42:59.940Z,-2.44
2022-12-13T20:47:51.974Z,-2.46
2022-12-13T20:52:50.575Z,-3.92
2022-12-13T20:57:42.907Z,-2.48
2022-12-13T21:02:36.499Z,-2.93
2022-12-13T21:07:48.499Z,-2.54
2022-12-13T21:12:41.385Z,-2.57
2022-12-13T21:17:33.100Z,-3.32
2022-12-13T21:22:30.563Z,-3.25
2022-12-13T21:27:22.521Z,-2.56
2022-12-13T21:32:14.376Z,-3.33
2022-12-13T21:37:06.142Z,-3.18
2022-12-13T21:42:00.657Z,-3.39
2022-12-13T21:47:11.715Z,-2.70
2022-12-13T21:52:04.061Z,-3.47
2022-12-13T21:57:17.428Z,-2.71
2022-12-13T22:02:16.463Z,-2.80
2022-12-13T22:07:09.279Z,-2.70
2022-12-13T22:12:01.789Z,-3.30
2022-12-13T22:16:53.450Z,-2.72
2022-12-13T22:21:45.138Z,-3.08
2022-12-13T22:26:39.005Z,-2.70
2022-12-13T22:31:30.961Z,-3.31
2022-12-13T22:36:22.777Z,-3.31
2022-12-13T22:41:16.083Z,-3.08
2022-12-13T22:46:10.844Z,-2.69
2022-12-13T22:51:03.535Z,-3.46
2022-12-13T22:55:55.304Z,-2.59
2022-12-13T23:00:46.941Z,-2.59
2022-12-13T23:05:38.635Z,-2.59
2022-12-13T23:10:48.870Z,-2.55
2022-12-13T23:15:48.988Z,-3.14
2022-12-13T23:20:41.213Z,-3.03
2022-12-13T23:25:32.718Z,-2.73
2022-12-13T23:30:24.287Z,-2.54
2022-12-13T23:35:15.849Z,-2.47
2022-12-13T23:40:08.286Z,-2.43
2022-12-13T23:44:59.907Z,-2.41
2022-12-13T23:49:51.532Z,-2.47
2022-12-13T23:54:43.175Z,-2.67
2022-12-13T23:59:34.884Z,-2.51
